createdAt,value
2023-01-18T00:02:11.559Z,4.05
2023-01-18T00:04:44.807Z,4.10
2023-01-18T00:07:19.501Z,4.47
2023-01-18T00:09:53.135Z,3.70
2023-01-18T00:12:26.803Z,3.22
2023-01-18T00:15:00.927Z,4.75
2023-01-18T00:17:47.660Z,3.45
2023-01-18T00:20:23.189Z,5.35
2023-01-18T00:23:01.912Z,3.30
2023-01-18T00:25:35.568Z,3.78
2023-01-18T00:28:09.190Z,5.20
2023-01-18T00:30:42.720Z,3.50
2023-01-18T00:33:16.189Z,4.72
2023-01-18T00:35:56.765Z,3.97
2023-01-18T00:38:31.999Z,3.70
2023-01-18T00:41:05.523Z,4.90
2023-01-18T00:43:40.509Z,4.15
2023-01-18T00:46:15.733Z,4.20
2023-01-18T00:48:49.422Z,4.15
2023-01-18T00:59:05.685Z,5.18
2023-01-18T01:01:38.974Z,4.63
2023-01-18T01:04:29.677Z,4.03
2023-01-18T01:07:02.928Z,3.47
2023-01-18T01:09:37.524Z,3.88
2023-01-18T01:12:29.110Z,4.10
2023-01-18T01:15:20.506Z,5.43
2023-01-18T01:18:10.793Z,2.95
2023-01-18T01:21:01.614Z,4.70
2023-01-18T01:23:52.665Z,4.47
2023-01-18T01:26:27.380Z,4.10
2023-01-18T01:29:00.907Z,3.97
2023-01-18T01:31:34.246Z,3.85
2023-01-18T01:34:07.530Z,5.05
2023-01-18T01:36:40.698Z,4.38
2023-01-18T01:39:13.922Z,4.65
2023-01-18T01:41:49.123Z,4.13
2023-01-18T01:44:43.188Z,5.05
2023-01-18T01:47:37.493Z,4.50
2023-01-18T01:50:18.491Z,6.95
2023-01-18T01:52:52.034Z,4.30
2023-01-18T01:55:30.305Z,7.05
2023-01-18T01:58:08.982Z,4.13
2023-01-18T02:00:42.396Z,6.07
2023-01-18T02:03:19.257Z,4.80
2023-01-18T02:05:58.004Z,4.57
2023-01-18T02:08:31.608Z,7.80
2023-01-18T02:11:05.108Z,4.20
2023-01-18T02:16:21.676Z,5.90
2023-01-18T02:19:03.885Z,3.40
2023-01-18T02:21:41.638Z,4.72
2023-01-18T02:25:06.240Z,4.57
2023-01-18T02:27:44.471Z,4.30
2023-01-18T02:30:29.700Z,5.20
2023-01-18T02:33:07.661Z,3.67
2023-01-18T02:35:48.860Z,4.43
2023-01-18T02:38:25.381Z,5.25
2023-01-18T02:41:10.145Z,3.85
2023-01-18T02:44:03.703Z,4.53
2023-01-18T02:46:39.194Z,4.27
2023-01-18T02:49:19.448Z,4.70
2023-01-18T02:52:02.235Z,2.97
2023-01-18T02:54:38.332Z,4.22
2023-01-18T02:57:17.833Z,4.90
2023-01-18T02:59:55.872Z,4.05
2023-01-18T03:02:30.406Z,4.57
2023-01-18T03:05:04.580Z,4.40
2023-01-18T03:07:46.490Z,4.30
2023-01-18T03:10:19.860Z,3.72
2023-01-18T03:13:00.135Z,3.78
2023-01-18T03:15:44.323Z,3.40
2023-01-18T03:18:24.207Z,3.90
2023-01-18T03:20:58.285Z,5.20
2023-01-18T03:23:42.500Z,4.63
2023-01-18T03:26:18.845Z,4.40
2023-01-18T03:29:13.854Z,4.38
2023-01-18T03:32:07.952Z,5.45
2023-01-18T03:34:48.599Z,7.05
2023-01-18T03:37:27.737Z,4.38
2023-01-18T03:40:04.674Z,4.22
2023-01-18T03:42:45.989Z,4.68
2023-01-18T03:45:28.147Z,5.55
2023-01-18T03:48:02.711Z,5.53
2023-01-18T03:50:50.506Z,3.85
2023-01-18T03:53:32.887Z,4.15
2023-01-18T03:56:10.952Z,4.97
2023-01-18T03:58:46.355Z,4.75
2023-01-18T04:01:20.818Z,4.60
2023-01-18T04:03:54.308Z,5.07
2023-01-18T04:06:30.269Z,4.57
2023-01-18T04:09:04.472Z,5.45
2023-01-18T04:11:37.613Z,3.83
2023-01-18T04:14:11.533Z,3.60
2023-01-18T04:16:45.192Z,3.88
2023-01-18T04:19:19.259Z,4.97
2023-01-18T04:21:54.191Z,4.90
2023-01-18T04:24:27.422Z,5.03
2023-01-18T04:27:03.691Z,4.88
2023-01-18T04:29:37.297Z,4.70
2023-01-18T04:32:10.735Z,6.45
2023-01-18T04:34:43.978Z,5.00
2023-01-18T04:37:18.587Z,4.15
2023-01-18T04:39:51.698Z,5.53
2023-01-18T04:42:25.901Z,3.67
2023-01-18T04:44:59.896Z,5.45
2023-01-18T04:50:07.709Z,4.72
2023-01-18T04:52:42.500Z,3.33
2023-01-18T04:55:16.044Z,4.38
2023-01-18T04:57:55.605Z,4.95
2023-01-18T05:00:29.144Z,6.47
2023-01-18T05:03:02.980Z,5.13
2023-01-18T05:05:36.203Z,5.32
2023-01-18T05:08:11.091Z,5.55
2023-01-18T05:10:44.208Z,5.22
2023-01-18T05:13:18.019Z,6.70
2023-01-18T05:15:51.791Z,5.35
2023-01-18T05:18:25.236Z,4.75
2023-01-18T05:20:58.503Z,5.30
2023-01-18T05:23:33.333Z,6.07
2023-01-18T05:26:13.644Z,7.95
2023-01-18T05:28:47.644Z,6.45
2023-01-18T05:33:54.729Z,8.40
2023-01-18T05:36:28.027Z,7.53
2023-01-18T05:39:03.056Z,5.60
2023-01-18T05:41:37.598Z,6.72
2023-01-18T05:44:11.268Z,5.30
2023-01-18T05:46:44.569Z,5.18
2023-01-18T05:49:17.739Z,5.55
2023-01-18T05:51:51.400Z,5.03
2023-01-18T05:54:26.166Z,6.32
2023-01-18T05:57:01.217Z,5.82
2023-01-18T05:59:35.364Z,4.88
2023-01-18T06:02:08.911Z,5.18
2023-01-18T06:07:17.843Z,6.45
2023-01-18T06:09:52.539Z,4.45
2023-01-18T06:12:26.383Z,5.88
2023-01-18T06:15:00.576Z,7.18
2023-01-18T06:20:08.994Z,5.22
2023-01-18T06:22:42.569Z,4.85
2023-01-18T06:25:17.928Z,5.57
2023-01-18T06:27:51.558Z,5.43
2023-01-18T06:30:25.480Z,6.25
2023-01-18T06:35:32.389Z,4.80
2023-01-18T06:38:06.665Z,6.40
2023-01-18T06:40:41.219Z,7.13
2023-01-18T06:43:16.022Z,6.55
2023-01-18T06:45:53.747Z,5.82
2023-01-18T06:48:28.602Z,8.07
2023-01-18T06:51:02.259Z,6.57
2023-01-18T06:53:37.772Z,5.55
2023-01-18T06:56:14.426Z,8.90
2023-01-18T06:58:48.002Z,6.70
2023-01-18T07:01:21.332Z,9.45
2023-01-18T07:03:55.745Z,6.50
2023-01-18T07:06:29.697Z,7.13
2023-01-18T07:09:02.917Z,6.55
2023-01-18T07:11:37.976Z,6.20
2023-01-18T07:14:12.000Z,6.97
2023-01-18T07:16:45.419Z,5.22
2023-01-18T07:19:18.838Z,6.38
2023-01-18T07:21:53.812Z,5.20
2023-01-18T07:24:27.466Z,5.28
2023-01-18T07:27:03.273Z,5.47
2023-01-18T07:29:40.009Z,6.65
2023-01-18T07:32:13.505Z,13.65
2023-01-18T07:34:46.784Z,6.35
2023-01-18T07:37:20.444Z,6.65
2023-01-18T07:39:53.910Z,7.95
2023-01-18T07:42:29.094Z,7.65
2023-01-18T07:45:02.295Z,5.45
2023-01-18T07:47:36.903Z,5.22
2023-01-18T07:50:11.678Z,5.05
2023-01-18T07:52:44.898Z,7.45
2023-01-18T07:55:18.156Z,8.18
2023-01-18T07:57:52.796Z,6.40
2023-01-18T08:00:26.959Z,7.15
2023-01-18T08:03:02.664Z,6.40
2023-01-18T08:05:36.182Z,5.72
2023-01-18T08:08:11.313Z,4.82
2023-01-18T08:10:45.855Z,5.47
2023-01-18T08:13:21.148Z,5.78
2023-01-18T08:15:56.844Z,6.07
2023-01-18T08:18:31.816Z,6.40
2023-01-18T08:21:06.161Z,7.18
2023-01-18T08:23:39.732Z,6.70
2023-01-18T08:26:15.393Z,5.10
2023-01-18T08:28:50.023Z,4.82
2023-01-18T08:31:23.370Z,4.57
2023-01-18T08:33:56.641Z,6.28
2023-01-18T08:36:31.792Z,7.75
2023-01-18T08:39:05.216Z,5.75
2023-01-18T08:41:38.791Z,5.85
2023-01-18T08:44:13.897Z,5.40
2023-01-18T08:46:47.472Z,4.93
2023-01-18T08:49:20.964Z,5.22
2023-01-18T08:51:54.593Z,5.93
2023-01-18T08:54:28.416Z,4.43
2023-01-18T08:57:02.641Z,5.65
2023-01-18T08:59:37.595Z,5.05
2023-01-18T09:02:11.259Z,4.20
2023-01-18T09:04:48.641Z,4.63
2023-01-18T09:07:21.959Z,4.72
2023-01-18T09:09:55.439Z,3.97
2023-01-18T09:12:30.849Z,4.65
2023-01-18T09:15:06.859Z,4.18
2023-01-18T09:17:40.261Z,5.80
2023-01-18T09:20:14.220Z,4.82
2023-01-18T09:22:48.915Z,6.22
2023-01-18T09:25:22.311Z,5.28
2023-01-18T09:27:55.497Z,4.93
2023-01-18T09:30:30.699Z,5.82
2023-01-18T09:33:03.878Z,5.32
2023-01-18T09:35:37.090Z,4.68
2023-01-18T09:38:12.415Z,5.28
2023-01-18T09:40:46.503Z,4.20
2023-01-18T09:43:29.605Z,5.75
2023-01-18T09:46:04.751Z,4.85
2023-01-18T09:48:41.103Z,5.20
2023-01-18T09:51:22.818Z,4.50
2023-01-18T09:54:06.173Z,5.90
2023-01-18T09:56:47.950Z,5.35
2023-01-18T09:59:25.751Z,4.85
2023-01-18T10:02:03.686Z,4.72
2023-01-18T10:04:42.886Z,7.78
2023-01-18T10:07:18.547Z,5.53
2023-01-18T10:09:54.668Z,6.43
2023-01-18T10:12:35.720Z,5.40
2023-01-18T10:15:17.815Z,4.25
2023-01-18T10:17:56.661Z,5.65
2023-01-18T10:20:38.449Z,6.07
2023-01-18T10:23:19.006Z,8.23
2023-01-18T10:25:56.456Z,6.28
2023-01-18T10:28:42.057Z,4.70
2023-01-18T10:31:34.012Z,4.70
2023-01-18T10:34:17.771Z,3.97
2023-01-18T10:36:56.640Z,6.35
2023-01-18T10:39:36.037Z,6.82
2023-01-18T10:42:24.461Z,4.93
2023-01-18T10:44:57.592Z,5.72
2023-01-18T10:47:31.200Z,4.68
2023-01-18T10:50:14.218Z,6.05
2023-01-18T10:52:47.676Z,5.53
2023-01-18T10:55:21.571Z,4.35
2023-01-18T10:57:56.458Z,5.05
2023-01-18T11:00:35.276Z,7.40
2023-01-18T11:03:16.237Z,6.45
2023-01-18T11:05:51.330Z,6.05
2023-01-18T11:08:31.623Z,4.38
2023-01-18T11:11:06.807Z,4.97
2023-01-18T11:13:44.246Z,5.57
2023-01-18T11:16:19.291Z,6.20
2023-01-18T11:19:01.282Z,6.07
2023-01-18T11:21:47.941Z,4.38
2023-01-18T11:24:27.727Z,6.43
2023-01-18T11:27:03.004Z,4.65
2023-01-18T11:29:39.607Z,4.63
2023-01-18T11:32:24.001Z,4.75
2023-01-18T11:34:59.929Z,4.03
2023-01-18T11:37:37.771Z,4.70
2023-01-18T11:40:28.028Z,6.32
2023-01-18T11:43:09.391Z,5.18
2023-01-18T11:45:49.824Z,5.53
2023-01-18T11:48:30.231Z,5.88
2023-01-18T11:51:08.453Z,6.93
2023-01-18T11:53:54.295Z,7.38
2023-01-18T11:56:34.366Z,5.65
2023-01-18T11:59:15.502Z,6.00
2023-01-18T12:02:04.286Z,4.65
2023-01-18T12:04:50.921Z,6.10
2023-01-18T12:07:35.458Z,7.10
2023-01-18T12:10:16.991Z,6.03
2023-01-18T12:13:07.213Z,6.05
2023-01-18T12:15:57.379Z,5.75
2023-01-18T12:18:55.341Z,5.07
2023-01-18T12:21:35.601Z,5.60
2023-01-18T12:24:34.004Z,5.85
2023-01-18T12:27:19.660Z,6.97
2023-01-18T12:30:23.524Z,5.25
2023-01-18T12:33:34.379Z,6.57
2023-01-18T12:36:52.100Z,6.00
2023-01-18T12:39:47.379Z,5.43
2023-01-18T12:42:34.362Z,7.72
2023-01-18T12:45:19.849Z,7.63
2023-01-18T12:48:06.144Z,6.75
2023-01-18T12:50:42.529Z,6.25
2023-01-18T12:53:20.206Z,6.43
2023-01-18T12:55:55.847Z,7.82
2023-01-18T12:58:30.645Z,6.68
2023-01-18T13:01:08.651Z,6.75
2023-01-18T13:03:46.075Z,7.78
2023-01-18T13:06:21.773Z,7.40
2023-01-18T13:09:00.570Z,6.72
2023-01-18T13:11:37.872Z,6.03
2023-01-18T13:14:20.196Z,7.05
2023-01-18T13:17:02.852Z,7.15
2023-01-18T13:19:43.996Z,6.75
2023-01-18T13:22:26.373Z,8.98
2023-01-18T13:25:26.363Z,6.70
2023-01-18T13:28:01.646Z,6.93
2023-01-18T13:30:53.447Z,8.95
2023-01-18T13:33:28.576Z,6.65
2023-01-18T13:36:05.630Z,9.07
2023-01-18T13:38:48.902Z,7.50
2023-01-18T13:41:24.875Z,8.50
2023-01-18T13:44:04.632Z,7.20
2023-01-18T13:46:42.425Z,6.82
2023-01-18T13:49:37.618Z,9.27
2023-01-18T13:52:33.585Z,7.68
2023-01-18T13:55:26.143Z,9.10
2023-01-18T13:57:59.899Z,8.95
2023-01-18T14:03:20.504Z,7.88
2023-01-18T14:05:57.205Z,9.05
2023-01-18T14:08:34.361Z,8.05
2023-01-18T14:11:10.691Z,9.82
2023-01-18T14:14:08.402Z,10.65
2023-01-18T14:16:56.163Z,10.32
2023-01-18T14:19:36.533Z,9.20
2023-01-18T14:22:19.327Z,8.20
2023-01-18T14:25:19.056Z,11.63
2023-01-18T14:28:03.373Z,8.70
2023-01-18T14:30:41.073Z,11.82
2023-01-18T14:33:19.079Z,8.93
2023-01-18T14:35:55.167Z,9.60
2023-01-18T14:38:29.001Z,12.68
2023-01-18T14:41:06.871Z,9.40
2023-01-18T14:43:46.959Z,11.13
2023-01-18T14:46:25.371Z,11.40
2023-01-18T14:49:01.747Z,8.65
2023-01-18T14:51:36.688Z,10.10
2023-01-18T14:54:17.919Z,8.90
2023-01-18T14:56:51.257Z,10.70
2023-01-18T14:59:27.644Z,9.60
2023-01-18T15:02:02.824Z,11.50
2023-01-18T15:04:39.184Z,9.38
2023-01-18T15:07:19.995Z,10.15
2023-01-18T15:09:53.688Z,12.07
2023-01-18T15:15:07.855Z,10.43
2023-01-18T15:17:41.789Z,10.32
2023-01-18T15:20:16.247Z,9.55
2023-01-18T15:22:51.167Z,11.45
2023-01-18T15:25:28.237Z,12.02
2023-01-18T15:28:22.466Z,13.50
2023-01-18T15:30:57.684Z,11.43
2023-01-18T15:33:33.230Z,12.23
2023-01-18T15:36:08.324Z,11.93
2023-01-18T15:38:43.376Z,10.30
2023-01-18T15:41:17.978Z,11.68
2023-01-18T15:43:51.729Z,15.00
2023-01-18T15:46:25.934Z,11.20
2023-01-18T15:48:59.676Z,12.82
2023-01-18T15:51:50.390Z,12.15
2023-01-18T15:54:28.114Z,10.93
2023-01-18T15:57:12.920Z,10.70
2023-01-18T15:59:47.654Z,13.15
2023-01-18T16:02:22.864Z,12.18
2023-01-18T16:05:09.632Z,11.40
2023-01-18T16:07:43.110Z,10.98
2023-01-18T16:10:31.302Z,14.35
2023-01-18T16:13:37.743Z,12.82
2023-01-18T16:16:23.163Z,11.95
2023-01-18T16:19:08.082Z,12.20
2023-01-18T16:21:46.615Z,13.82
2023-01-18T16:24:28.215Z,12.88
2023-01-18T16:27:11.265Z,14.68
2023-01-18T16:29:46.565Z,11.68
2023-01-18T16:32:31.997Z,13.75
2023-01-18T16:35:14.087Z,12.98
2023-01-18T16:38:02.375Z,13.15
2023-01-18T16:40:52.036Z,12.57
2023-01-18T16:43:43.158Z,10.70
2023-01-18T16:46:16.391Z,12.05
2023-01-18T16:48:49.714Z,14.02
2023-01-18T16:51:24.513Z,12.95
2023-01-18T16:53:58.479Z,12.20
2023-01-18T16:56:47.571Z,13.65
2023-01-18T16:59:37.760Z,12.07
2023-01-18T17:02:11.577Z,15.13
2023-01-18T17:04:46.637Z,12.52
2023-01-18T17:07:20.619Z,14.45
2023-01-18T17:12:30.876Z,12.13
2023-01-18T17:17:43.260Z,10.43
2023-01-18T17:20:19.047Z,10.90
2023-01-18T17:22:53.226Z,13.35
2023-01-18T17:25:26.798Z,10.45
2023-01-18T17:28:00.947Z,10.88
2023-01-18T17:30:37.977Z,10.07
2023-01-18T17:33:17.805Z,9.57
2023-01-18T17:35:52.187Z,9.65
2023-01-18T17:38:29.585Z,10.02
2023-01-18T17:41:04.128Z,9.38
2023-01-18T17:43:37.646Z,11.07
2023-01-18T17:46:12.743Z,9.63
2023-01-18T17:48:46.124Z,8.43
2023-01-18T17:51:19.526Z,10.40
2023-01-18T17:53:54.471Z,9.23
2023-01-18T17:56:27.742Z,8.30
2023-01-18T17:59:01.413Z,9.55
2023-01-18T18:01:36.332Z,10.00
2023-01-18T18:04:09.904Z,9.18
2023-01-18T18:06:53.790Z,8.82
2023-01-18T18:09:27.671Z,9.27
2023-01-18T18:14:35.628Z,8.80
2023-01-18T18:19:43.637Z,10.73
2023-01-18T18:22:17.564Z,9.05
2023-01-18T18:24:52.098Z,8.88
2023-01-18T18:27:37.283Z,9.85
2023-01-18T18:30:18.824Z,9.05
2023-01-18T18:32:53.553Z,9.82
2023-01-18T18:35:32.189Z,8.98
2023-01-18T18:38:05.629Z,8.57
2023-01-18T18:40:39.088Z,7.85
2023-01-18T18:43:12.888Z,8.27
2023-01-18T18:45:47.203Z,9.00
2023-01-18T18:48:22.057Z,8.95
2023-01-18T18:50:55.943Z,9.85
2023-01-18T18:56:11.716Z,10.05
2023-01-18T19:01:22.024Z,7.28
2023-01-18T19:03:58.782Z,9.00
2023-01-18T19:06:32.350Z,9.80
2023-01-18T19:11:50.435Z,8.43
2023-01-18T19:14:27.953Z,9.75
2023-01-18T19:17:01.662Z,9.57
2023-01-18T19:19:37.295Z,10.52
2023-01-18T19:22:11.152Z,9.27
2023-01-18T19:24:44.611Z,9.13
2023-01-18T19:29:53.507Z,8.55
2023-01-18T19:32:27.570Z,10.82
2023-01-18T19:35:02.377Z,11.02
2023-01-18T19:37:36.209Z,8.88
2023-01-18T19:40:11.238Z,8.52
2023-01-18T19:42:46.790Z,7.47
2023-01-18T19:45:27.814Z,10.75
2023-01-18T19:48:02.399Z,6.88
2023-01-18T19:53:10.807Z,7.57
2023-01-18T19:55:44.212Z,9.10
2023-01-18T19:58:17.850Z,7.95
2023-01-18T20:00:52.503Z,8.20
2023-01-18T20:03:26.510Z,10.63
2023-01-18T20:06:01.407Z,9.30
2023-01-18T20:08:35.546Z,10.40
2023-01-18T20:11:11.539Z,8.98
2023-01-18T20:13:49.647Z,10.43
2023-01-18T20:16:24.650Z,10.57
2023-01-18T20:18:58.640Z,6.72
2023-01-18T20:21:33.633Z,9.07
2023-01-18T20:24:08.288Z,6.00
2023-01-18T20:26:42.149Z,6.25
2023-01-18T20:29:16.471Z,5.75
2023-01-18T20:31:50.442Z,7.13
2023-01-18T20:34:24.594Z,8.10
2023-01-18T20:36:59.384Z,6.70
2023-01-18T20:39:32.996Z,7.07
2023-01-18T20:42:06.784Z,8.57
2023-01-18T20:44:40.699Z,9.05
2023-01-18T20:49:47.130Z,6.47
2023-01-18T20:52:22.035Z,5.47
2023-01-18T20:54:57.036Z,7.95
2023-01-18T20:57:31.760Z,7.45
2023-01-18T21:00:06.335Z,6.93
2023-01-18T21:02:39.906Z,6.95
2023-01-18T21:05:13.241Z,6.30
2023-01-18T21:07:47.916Z,5.90
2023-01-18T21:10:21.659Z,7.45
2023-01-18T21:12:55.757Z,6.70
2023-01-18T21:15:29.490Z,8.52
2023-01-18T21:18:04.285Z,6.07
2023-01-18T21:20:37.718Z,6.25
2023-01-18T21:23:12.585Z,6.68
2023-01-18T21:25:50.585Z,6.78
2023-01-18T21:28:24.988Z,7.50
2023-01-18T21:30:58.503Z,8.80
2023-01-18T21:33:33.302Z,7.32
2023-01-18T21:36:08.076Z,7.28
2023-01-18T21:38:42.951Z,6.45
2023-01-18T21:41:33.974Z,7.00
2023-01-18T21:44:24.876Z,9.07
2023-01-18T21:46:58.905Z,6.60
2023-01-18T21:50:15.991Z,6.78
2023-01-18T21:53:00.106Z,7.68
2023-01-18T21:55:35.887Z,6.57
2023-01-18T21:58:26.358Z,8.20
2023-01-18T22:01:00.631Z,8.63
2023-01-18T22:03:34.040Z,6.72
2023-01-18T22:06:06.873Z,8.35
2023-01-18T22:08:40.134Z,8.77
2023-01-18T22:11:14.659Z,6.88
2023-01-18T22:13:48.533Z,10.43
2023-01-18T22:16:23.536Z,9.30
2023-01-18T22:18:57.078Z,8.93
2023-01-18T22:21:30.879Z,8.45
2023-01-18T22:24:04.316Z,7.95
2023-01-18T22:26:40.262Z,7.85
2023-01-18T22:29:13.921Z,6.68
2023-01-18T22:31:48.393Z,6.95
2023-01-18T22:34:21.506Z,7.55
2023-01-18T22:36:54.810Z,7.82
2023-01-18T22:39:28.061Z,7.30
2023-01-18T22:42:02.812Z,8.80
2023-01-18T22:44:37.093Z,6.97
2023-01-18T22:47:10.275Z,7.18
2023-01-18T22:49:43.492Z,9.15
2023-01-18T22:52:16.743Z,7.38
2023-01-18T22:54:49.969Z,8.38
2023-01-18T22:57:24.685Z,8.13
2023-01-18T22:59:57.923Z,7.57
2023-01-18T23:02:33.077Z,8.68
2023-01-18T23:05:07.279Z,7.47
2023-01-18T23:07:40.911Z,8.65
2023-01-18T23:10:14.215Z,7.63
2023-01-18T23:15:40.549Z,6.15
2023-01-18T23:18:14.460Z,7.30
2023-01-18T23:20:47.663Z,6.50
2023-01-18T23:23:20.835Z,11.43
2023-01-18T23:25:57.399Z,8.32
2023-01-18T23:28:42.177Z,6.63
2023-01-18T23:31:17.437Z,8.45
2023-01-18T23:33:50.942Z,6.85
2023-01-18T23:36:24.600Z,6.88
2023-01-18T23:39:15.516Z,7.43
2023-01-18T23:42:06.381Z,7.25
2023-01-18T23:44:58.652Z,8.07
2023-01-18T23:47:49.459Z,6.72
2023-01-18T23:50:40.644Z,8.10
2023-01-18T23:53:32.462Z,8.13
2023-01-18T23:56:05.906Z,7.80
2023-01-18T23:58:40.866Z,7.95
